createdAt,value
2022-12-12T00:01:23.164Z,1.30
2022-12-12T00:03:50.264Z,1.30
2022-12-12T00:06:19.349Z,1.40
2022-12-12T00:08:45.981Z,1.20
2022-12-12T00:11:12.567Z,1.10
2022-12-12T00:13:39.262Z,1.00
2022-12-12T00:16:11.075Z,0.90
2022-12-12T00:18:41.060Z,1.00
2022-12-12T00:21:11.136Z,1.00
2022-12-12T00:23:37.763Z,1.10
2022-12-12T00:26:07.875Z,1.10
2022-12-12T00:28:34.542Z,1.20
2022-12-12T00:31:01.226Z,1.20
2022-12-12T00:33:27.857Z,1.10
2022-12-12T00:35:55.236Z,1.20
2022-12-12T00:38:22.772Z,1.20
2022-12-12T00:40:49.843Z,1.20
2022-12-12T00:43:16.492Z,1.30
2022-12-12T00:45:43.087Z,1.30
2022-12-12T00:48:09.822Z,1.20
2022-12-12T00:50:36.427Z,1.20
2022-12-12T00:53:05.517Z,1.20
2022-12-12T00:55:34.512Z,1.30
2022-12-12T00:58:01.171Z,1.30
2022-12-12T01:00:30.136Z,1.20
2022-12-12T01:02:57.465Z,1.20
2022-12-12T01:05:24.503Z,1.10
2022-12-12T01:07:51.126Z,1.10
2022-12-12T01:10:17.866Z,1.00
2022-12-12T01:12:44.413Z,1.00
2022-12-12T01:15:13.434Z,1.00
2022-12-12T01:17:41.524Z,1.10
2022-12-12T01:20:11.284Z,1.10
2022-12-12T01:22:37.828Z,1.10
2022-12-12T01:25:06.672Z,1.10
2022-12-12T01:27:33.287Z,1.20
2022-12-12T01:30:01.782Z,1.20
2022-12-12T01:32:28.874Z,1.10
2022-12-12T01:34:55.438Z,1.10
2022-12-12T01:37:22.216Z,1.10
2022-12-12T01:39:48.820Z,1.10
2022-12-12T01:42:16.875Z,1.10
2022-12-12T01:44:47.420Z,1.10
2022-12-12T01:47:14.994Z,1.20
2022-12-12T01:49:42.919Z,1.20
2022-12-12T01:52:12.395Z,1.20
2022-12-12T01:54:42.843Z,1.30
2022-12-12T01:57:13.218Z,1.20
2022-12-12T01:59:40.484Z,1.20
2022-12-12T02:02:07.325Z,1.10
2022-12-12T02:04:34.380Z,1.10
2022-12-12T02:07:03.354Z,1.00
2022-12-12T02:09:32.496Z,1.00
2022-12-12T02:12:01.264Z,0.80
2022-12-12T02:14:30.099Z,0.90
2022-12-12T02:16:59.463Z,0.90
2022-12-12T02:19:31.533Z,0.90
2022-12-12T02:22:18.861Z,0.90
2022-12-12T02:24:51.492Z,0.90
2022-12-12T02:27:35.538Z,0.90
2022-12-12T02:30:07.606Z,0.90
2022-12-12T02:32:43.044Z,0.90
2022-12-12T02:35:12.988Z,0.90
2022-12-12T02:37:49.129Z,0.80
2022-12-12T02:40:21.862Z,0.80
2022-12-12T02:42:53.865Z,0.90
2022-12-12T02:45:25.483Z,0.90
2022-12-12T02:47:58.734Z,0.90
2022-12-12T02:50:27.100Z,0.90
2022-12-12T02:52:53.804Z,0.90
2022-12-12T02:55:23.545Z,0.80
2022-12-12T02:57:50.422Z,0.80
2022-12-12T03:00:21.504Z,0.90
2022-12-12T03:03:18.754Z,0.90
2022-12-12T03:06:04.130Z,0.80
2022-12-12T03:08:36.526Z,0.90
2022-12-12T03:11:08.043Z,0.90
2022-12-12T03:13:51.582Z,0.80
2022-12-12T03:16:50.340Z,0.70
2022-12-12T03:19:16.880Z,0.80
2022-12-12T03:22:09.937Z,0.80
2022-12-12T03:24:56.757Z,0.70
2022-12-12T03:27:25.839Z,0.70
2022-12-12T03:30:02.145Z,0.70
2022-12-12T03:32:36.169Z,0.60
2022-12-12T03:35:09.738Z,0.60
2022-12-12T03:37:41.729Z,0.60
2022-12-12T03:40:18.352Z,0.70
2022-12-12T03:42:48.133Z,0.60
2022-12-12T03:45:18.160Z,0.70
2022-12-12T03:47:52.976Z,0.70
2022-12-12T03:50:24.509Z,0.70
2022-12-12T03:53:08.776Z,0.80
2022-12-12T03:55:38.793Z,0.80
2022-12-12T03:58:08.396Z,0.80
2022-12-12T04:00:37.299Z,0.90
2022-12-12T04:03:15.575Z,0.80
2022-12-12T04:06:17.564Z,0.80
2022-12-12T04:09:04.510Z,0.80
2022-12-12T04:11:54.071Z,0.80
2022-12-12T04:14:29.055Z,0.80
2022-12-12T04:17:00.710Z,0.80
2022-12-12T04:19:58.387Z,0.80
2022-12-12T04:22:46.690Z,0.90
2022-12-12T04:25:26.063Z,0.90
2022-12-12T04:27:55.036Z,0.90
2022-12-12T04:30:21.584Z,0.80
2022-12-12T04:32:50.918Z,0.70
2022-12-12T04:35:23.123Z,0.80
2022-12-12T04:37:55.661Z,0.80
2022-12-12T04:40:25.285Z,0.80
2022-12-12T04:42:58.047Z,0.80
2022-12-12T04:45:27.497Z,0.70
2022-12-12T04:47:54.489Z,0.70
2022-12-12T04:50:22.304Z,0.80
2022-12-12T04:52:50.211Z,0.80
2022-12-12T04:55:24.501Z,0.80
2022-12-12T04:57:52.176Z,0.90
2022-12-12T05:00:20.098Z,0.90
2022-12-12T05:02:49.486Z,0.90
2022-12-12T05:05:18.974Z,0.90
2022-12-12T05:07:56.649Z,0.90
2022-12-12T05:10:25.885Z,0.90
2022-12-12T05:12:58.597Z,0.90
2022-12-12T05:15:26.088Z,1.00
2022-12-12T05:17:55.458Z,1.00
2022-12-12T05:20:22.005Z,1.00
2022-12-12T05:22:48.582Z,1.00
2022-12-12T05:25:17.547Z,1.00
2022-12-12T05:27:44.149Z,1.00
2022-12-12T05:30:13.422Z,1.00
2022-12-12T05:32:40.177Z,1.10
2022-12-12T05:35:09.612Z,1.00
2022-12-12T05:37:38.534Z,1.00
2022-12-12T05:40:06.216Z,1.00
2022-12-12T05:42:32.821Z,1.00
2022-12-12T05:44:59.421Z,1.00
2022-12-12T05:47:25.945Z,1.00
2022-12-12T05:49:52.664Z,1.00
2022-12-12T05:52:19.389Z,0.90
2022-12-12T05:54:48.620Z,1.00
2022-12-12T05:57:16.487Z,1.00
2022-12-12T05:59:43.271Z,1.00
2022-12-12T06:02:09.884Z,1.00
2022-12-12T06:04:36.480Z,1.00
2022-12-12T06:07:05.303Z,1.00
2022-12-12T06:09:32.301Z,1.00
2022-12-12T06:11:59.381Z,1.00
2022-12-12T06:14:26.297Z,1.00
2022-12-12T06:16:55.372Z,1.00
2022-12-12T06:19:24.446Z,1.00
2022-12-12T06:21:51.091Z,1.00
2022-12-12T06:24:17.740Z,1.00
2022-12-12T06:26:44.308Z,1.00
2022-12-12T06:29:14.683Z,1.00
2022-12-12T06:31:41.395Z,1.00
2022-12-12T06:34:08.023Z,1.10
2022-12-12T06:36:36.951Z,1.00
2022-12-12T06:39:03.603Z,1.00
2022-12-12T06:41:30.846Z,0.90
2022-12-12T06:44:02.479Z,0.90
2022-12-12T06:46:32.303Z,1.00
2022-12-12T06:48:59.233Z,1.00
2022-12-12T06:51:27.206Z,1.00
2022-12-12T06:53:53.968Z,0.90
2022-12-12T06:56:22.694Z,0.90
2022-12-12T06:58:49.671Z,0.80
2022-12-12T07:01:20.167Z,0.80
2022-12-12T07:03:52.342Z,0.80
2022-12-12T07:06:20.302Z,0.80
2022-12-12T07:08:47.133Z,0.80
2022-12-12T07:11:15.072Z,0.80
2022-12-12T07:13:41.869Z,0.80
2022-12-12T07:16:08.947Z,0.90
2022-12-12T07:18:35.895Z,0.90
2022-12-12T07:21:06.269Z,0.80
2022-12-12T07:23:33.355Z,0.70
2022-12-12T07:26:03.204Z,0.60
2022-12-12T07:28:29.807Z,0.50
2022-12-12T07:30:56.411Z,0.50
2022-12-12T07:33:23.121Z,0.40
2022-12-12T07:35:49.713Z,0.50
2022-12-12T07:38:16.279Z,0.60
2022-12-12T07:40:45.090Z,0.70
2022-12-12T07:43:13.367Z,0.70
2022-12-12T07:45:43.494Z,0.70
2022-12-12T07:48:12.532Z,0.80
2022-12-12T07:50:39.597Z,0.80
2022-12-12T07:53:08.836Z,0.60
2022-12-12T07:55:35.388Z,0.60
2022-12-12T07:58:01.921Z,0.70
2022-12-12T08:00:28.474Z,0.70
2022-12-12T08:02:55.030Z,0.70
2022-12-12T08:05:21.725Z,0.80
2022-12-12T08:07:48.438Z,0.80
2022-12-12T08:10:15.126Z,0.80
2022-12-12T08:12:41.701Z,0.70
2022-12-12T08:15:10.937Z,0.60
2022-12-12T08:17:39.983Z,0.50
2022-12-12T08:20:06.892Z,0.50
2022-12-12T08:22:33.466Z,0.50
2022-12-12T08:25:00.249Z,0.60
2022-12-12T08:27:27.139Z,0.70
2022-12-12T08:29:54.142Z,0.80
2022-12-12T08:32:20.693Z,0.80
2022-12-12T08:34:47.908Z,0.80
2022-12-12T08:37:14.514Z,0.90
2022-12-12T08:39:41.082Z,0.90
2022-12-12T08:42:07.656Z,0.80
2022-12-12T08:44:34.203Z,0.70
2022-12-12T08:47:01.018Z,0.70
2022-12-12T08:49:29.792Z,0.80
2022-12-12T08:51:56.329Z,0.80
2022-12-12T08:54:25.558Z,0.90
2022-12-12T08:56:52.135Z,0.90
2022-12-12T08:59:18.809Z,0.90
2022-12-12T09:01:45.428Z,0.90
2022-12-12T09:04:12.150Z,1.00
2022-12-12T09:06:41.064Z,0.90
2022-12-12T09:09:07.730Z,0.80
2022-12-12T09:11:34.266Z,0.90
2022-12-12T09:14:00.835Z,0.90
2022-12-12T09:16:29.955Z,1.00
2022-12-12T09:19:01.356Z,1.00
2022-12-12T09:21:27.895Z,1.10
2022-12-12T09:23:54.495Z,1.20
2022-12-12T09:26:25.709Z,1.20
2022-12-12T09:28:52.356Z,1.30
2022-12-12T09:31:18.989Z,1.20
2022-12-12T09:33:47.724Z,1.20
2022-12-12T09:36:14.899Z,1.20
2022-12-12T09:38:41.853Z,1.20
2022-12-12T09:41:15.515Z,1.30
2022-12-12T09:43:46.421Z,1.30
2022-12-12T09:46:21.745Z,1.30
2022-12-12T09:48:48.338Z,1.30
2022-12-12T09:51:14.884Z,1.10
2022-12-12T09:53:45.556Z,1.10
2022-12-12T09:56:32.754Z,1.10
2022-12-12T09:59:01.424Z,1.10
2022-12-12T10:01:39.231Z,1.10
2022-12-12T10:04:14.773Z,1.20
2022-12-12T10:06:44.141Z,1.20
2022-12-12T10:09:21.753Z,1.30
2022-12-12T10:11:51.426Z,1.40
2022-12-12T10:14:27.709Z,1.50
2022-12-12T10:16:58.082Z,1.50
2022-12-12T10:19:27.251Z,1.50
2022-12-12T10:21:56.701Z,1.60
2022-12-12T10:24:33.111Z,1.70
2022-12-12T10:27:08.357Z,1.70
2022-12-12T10:29:39.724Z,1.80
2022-12-12T10:32:10.263Z,1.80
2022-12-12T10:34:40.104Z,1.90
2022-12-12T10:37:16.087Z,1.90
2022-12-12T10:39:48.875Z,1.90
2022-12-12T10:42:17.583Z,1.90
2022-12-12T10:44:47.168Z,1.90
2022-12-12T10:47:14.403Z,1.90
2022-12-12T10:49:43.419Z,2.00
2022-12-12T10:52:18.223Z,1.90
2022-12-12T10:54:48.897Z,1.80
2022-12-12T10:57:26.556Z,1.70
2022-12-12T10:59:54.936Z,1.70
2022-12-12T11:02:27.891Z,1.80
2022-12-12T11:05:02.775Z,1.80
2022-12-12T11:07:29.778Z,1.80
2022-12-12T11:10:02.317Z,1.90
2022-12-12T11:12:33.707Z,1.90
2022-12-12T11:15:03.830Z,1.90
2022-12-12T11:17:31.302Z,1.90
2022-12-12T11:20:02.273Z,2.00
2022-12-12T11:22:33.787Z,2.00
2022-12-12T11:25:00.705Z,2.00
2022-12-12T11:27:38.183Z,2.00
2022-12-12T11:30:08.108Z,2.00
2022-12-12T11:32:44.633Z,2.00
2022-12-12T11:35:23.488Z,2.10
2022-12-12T11:37:52.347Z,2.10
2022-12-12T11:40:25.727Z,2.20
2022-12-12T11:42:52.249Z,2.20
2022-12-12T11:45:22.806Z,2.20
2022-12-12T11:47:49.442Z,2.20
2022-12-12T11:50:22.154Z,2.20
2022-12-12T11:52:49.644Z,2.20
2022-12-12T11:55:18.292Z,2.20
2022-12-12T11:58:03.822Z,2.20
2022-12-12T12:00:38.762Z,2.20
2022-12-12T12:03:05.334Z,2.30
2022-12-12T12:05:34.656Z,2.30
2022-12-12T12:08:20.158Z,2.40
2022-12-12T12:10:58.086Z,2.50
2022-12-12T12:13:27.512Z,2.50
2022-12-12T12:16:02.791Z,2.60
2022-12-12T12:18:48.600Z,2.60
2022-12-12T12:21:26.122Z,2.60
2022-12-12T12:23:52.688Z,2.50
2022-12-12T12:26:27.457Z,2.40
2022-12-12T12:28:56.779Z,2.40
2022-12-12T12:31:35.668Z,2.40
2022-12-12T12:34:20.839Z,2.40
2022-12-12T12:36:50.149Z,2.40
2022-12-12T12:39:35.799Z,2.40
2022-12-12T12:42:02.313Z,2.40
2022-12-12T12:44:47.855Z,2.40
2022-12-12T12:47:14.444Z,2.50
2022-12-12T12:49:44.866Z,2.50
2022-12-12T12:52:31.410Z,2.50
2022-12-12T12:55:02.141Z,2.50
2022-12-12T12:57:33.675Z,2.40
2022-12-12T13:00:06.451Z,2.40
2022-12-12T13:02:51.973Z,2.40
2022-12-12T13:05:37.625Z,2.40
2022-12-12T13:08:12.802Z,2.40
2022-12-12T13:10:44.104Z,2.40
2022-12-12T13:13:24.578Z,2.40
2022-12-12T13:15:54.541Z,2.40
2022-12-12T13:18:21.178Z,2.40
2022-12-12T13:21:07.954Z,2.40
2022-12-12T13:23:34.704Z,2.40
2022-12-12T13:26:22.192Z,2.40
2022-12-12T13:28:53.745Z,2.30
2022-12-12T13:31:23.208Z,2.10
2022-12-12T13:33:53.917Z,1.90
2022-12-12T13:36:29.697Z,1.90
2022-12-12T13:38:58.310Z,1.80
2022-12-12T13:41:24.960Z,1.70
2022-12-12T13:43:58.610Z,1.80
2022-12-12T13:46:26.421Z,1.90
2022-12-12T13:48:53.024Z,1.90
2022-12-12T13:51:28.780Z,2.00
2022-12-12T13:54:12.621Z,2.00
2022-12-12T13:56:40.053Z,2.00
2022-12-12T13:59:25.227Z,2.10
2022-12-12T14:02:24.054Z,2.00
2022-12-12T14:05:08.962Z,2.00
2022-12-12T14:07:35.924Z,2.00
2022-12-12T14:10:14.994Z,2.00
2022-12-12T14:12:41.889Z,1.90
2022-12-12T14:15:18.900Z,1.80
2022-12-12T14:17:52.039Z,1.80
2022-12-12T14:20:29.554Z,1.80
2022-12-12T14:22:59.162Z,1.80
2022-12-12T14:25:55.414Z,1.90
2022-12-12T14:28:22.016Z,1.90
2022-12-12T14:30:54.786Z,1.90
2022-12-12T14:33:30.529Z,1.80
2022-12-12T14:36:01.806Z,1.80
2022-12-12T14:38:28.375Z,1.80
2022-12-12T14:40:58.714Z,1.80
2022-12-12T14:43:26.991Z,1.80
2022-12-12T14:45:53.518Z,1.70
2022-12-12T14:48:24.661Z,1.60
2022-12-12T14:50:51.236Z,1.60
2022-12-12T14:53:22.662Z,1.70
2022-12-12T14:55:53.488Z,1.60
2022-12-12T14:58:26.884Z,1.60
2022-12-12T15:00:55.303Z,1.60
2022-12-12T15:03:27.278Z,1.60
2022-12-12T15:06:14.187Z,1.60
2022-12-12T15:08:43.050Z,1.60
2022-12-12T15:11:15.962Z,1.50
2022-12-12T15:14:08.917Z,1.40
2022-12-12T15:16:56.215Z,1.50
2022-12-12T15:19:28.771Z,1.40
2022-12-12T15:21:55.747Z,1.40
2022-12-12T15:24:24.102Z,1.40
2022-12-12T15:26:52.726Z,1.50
2022-12-12T15:29:21.641Z,1.40
2022-12-12T15:31:51.205Z,1.40
2022-12-12T15:34:28.212Z,1.50
2022-12-12T15:36:54.774Z,1.50
2022-12-12T15:39:21.320Z,1.40
2022-12-12T15:41:48.105Z,1.40
2022-12-12T15:44:16.747Z,1.40
2022-12-12T15:46:43.562Z,1.40
2022-12-12T15:49:29.050Z,1.30
2022-12-12T15:51:55.587Z,1.40
2022-12-12T15:54:22.253Z,1.40
2022-12-12T15:56:51.250Z,1.30
2022-12-12T15:59:24.728Z,1.30
2022-12-12T16:01:51.288Z,1.30
2022-12-12T16:04:17.916Z,1.30
2022-12-12T16:06:45.925Z,1.20
2022-12-12T16:09:27.142Z,1.30
2022-12-12T16:11:54.143Z,1.10
2022-12-12T16:14:32.519Z,1.10
2022-12-12T16:17:18.103Z,1.20
2022-12-12T16:19:47.057Z,1.30
2022-12-12T16:22:16.554Z,1.20
2022-12-12T16:24:51.232Z,1.20
2022-12-12T16:27:17.849Z,1.00
2022-12-12T16:29:44.474Z,0.90
2022-12-12T16:32:15.357Z,0.80
2022-12-12T16:34:42.106Z,0.70
2022-12-12T16:37:13.622Z,0.70
2022-12-12T16:39:42.787Z,0.70
2022-12-12T16:42:16.273Z,0.70
2022-12-12T16:44:43.047Z,0.60
2022-12-12T16:47:17.331Z,0.60
2022-12-12T16:49:44.332Z,0.50
2022-12-12T16:52:14.775Z,0.30
2022-12-12T16:54:41.864Z,0.30
2022-12-12T16:57:08.718Z,0.40
2022-12-12T16:59:35.745Z,0.40
2022-12-12T17:02:02.793Z,0.40
2022-12-12T17:04:29.525Z,0.30
2022-12-12T17:06:57.304Z,0.10
2022-12-12T17:09:29.649Z,0.00
2022-12-12T17:12:01.403Z,0.00
2022-12-12T17:14:28.001Z,0.00
2022-12-12T17:16:54.810Z,0.00
2022-12-12T17:19:25.515Z,-0.20
2022-12-12T17:21:52.071Z,-0.20
2022-12-12T17:24:18.639Z,-0.40
2022-12-12T17:26:47.677Z,-0.40
2022-12-12T17:29:16.351Z,-0.40
2022-12-12T17:31:43.024Z,-0.30
2022-12-12T17:34:11.879Z,-0.40
2022-12-12T17:36:38.410Z,-0.50
2022-12-12T17:39:07.573Z,-0.60
2022-12-12T17:41:36.332Z,-0.70
2022-12-12T17:44:05.339Z,-0.70
2022-12-12T17:46:34.118Z,-0.70
2022-12-12T17:49:02.013Z,-0.70
2022-12-12T17:51:30.854Z,-0.70
2022-12-12T17:53:59.925Z,-0.70
2022-12-12T17:56:26.856Z,-0.70
2022-12-12T17:58:56.190Z,-0.80
2022-12-12T18:01:31.550Z,-0.80
2022-12-12T18:04:02.750Z,-0.80
2022-12-12T18:06:34.140Z,-0.80
2022-12-12T18:09:01.119Z,-0.80
2022-12-12T18:11:31.305Z,-0.70
2022-12-12T18:14:00.338Z,-0.70
2022-12-12T18:16:27.907Z,-0.70
2022-12-12T18:18:55.201Z,-0.70
2022-12-12T18:21:51.721Z,-0.80
2022-12-12T18:24:10.418Z,-0.80
2022-12-12T18:26:37.096Z,-0.80
2022-12-12T18:29:05.250Z,-0.80
2022-12-12T18:31:32.437Z,-0.80
2022-12-12T18:33:59.148Z,-0.80
2022-12-12T18:36:29.351Z,-0.90
2022-12-12T18:38:56.744Z,-0.90
2022-12-12T18:41:23.885Z,-1.10
2022-12-12T18:43:50.716Z,-1.10
2022-12-12T18:46:20.753Z,-1.20
2022-12-12T18:48:48.259Z,-1.20
2022-12-12T18:51:19.312Z,-1.20
2022-12-12T18:53:46.375Z,-1.20
2022-12-12T18:56:17.495Z,-1.30
2022-12-12T18:58:44.224Z,-1.40
2022-12-12T19:01:15.654Z,-1.40
2022-12-12T19:03:43.185Z,-1.30
2022-12-12T19:06:11.650Z,-1.20
2022-12-12T19:08:38.393Z,-1.10
2022-12-12T19:11:06.470Z,-1.10
2022-12-12T19:13:33.623Z,-1.00
2022-12-12T19:16:07.877Z,-1.00
2022-12-12T19:18:34.772Z,-1.00
2022-12-12T19:21:08.674Z,-0.90
2022-12-12T19:23:35.965Z,-0.90
2022-12-12T19:26:15.591Z,-0.90
2022-12-12T19:28:42.461Z,-0.90
2022-12-12T19:31:14.813Z,-0.90
2022-12-12T19:33:48.031Z,-0.90
2022-12-12T19:36:19.893Z,-1.00
2022-12-12T19:38:46.826Z,-1.00
2022-12-12T19:41:16.841Z,-0.90
2022-12-12T19:43:44.995Z,-0.90
2022-12-12T19:46:15.704Z,-0.80
2022-12-12T19:48:44.789Z,-0.80
2022-12-12T19:51:13.383Z,-0.80
2022-12-12T19:53:41.151Z,-0.80
2022-12-12T19:56:08.236Z,-0.80
2022-12-12T19:58:38.842Z,-0.80
2022-12-12T20:01:16.237Z,-0.90
2022-12-12T20:03:50.228Z,-0.90
2022-12-12T20:06:17.246Z,-0.90
2022-12-12T20:08:44.661Z,-0.90
2022-12-12T20:11:15.583Z,-0.80
2022-12-12T20:13:42.724Z,-0.90
2022-12-12T20:16:09.423Z,-1.00
2022-12-12T20:18:36.710Z,-1.10
2022-12-12T20:21:06.496Z,-1.30
2022-12-12T20:23:36.228Z,-1.30
2022-12-12T20:26:07.160Z,-1.20
2022-12-12T20:28:36.380Z,-1.10
2022-12-12T20:31:10.949Z,-1.10
2022-12-12T20:33:38.012Z,-1.30
2022-12-12T20:36:06.029Z,-1.40
2022-12-12T20:38:33.707Z,-1.50
2022-12-12T20:41:00.941Z,-1.60
2022-12-12T20:43:28.008Z,-1.60
2022-12-12T20:45:54.658Z,-1.50
2022-12-12T20:48:21.514Z,-1.40
2022-12-12T20:50:50.257Z,-1.50
2022-12-12T20:53:16.877Z,-1.50
2022-12-12T20:55:45.571Z,-1.50
2022-12-12T20:58:12.204Z,-1.60
2022-12-12T21:00:38.840Z,-1.60
2022-12-12T21:03:05.450Z,-1.50
2022-12-12T21:05:32.159Z,-1.50
2022-12-12T21:07:58.754Z,-1.50
2022-12-12T21:10:25.390Z,-1.40
2022-12-12T21:12:51.993Z,-1.30
2022-12-12T21:15:18.816Z,-1.30
2022-12-12T21:17:45.578Z,-1.30
2022-12-12T21:20:14.320Z,-1.30
2022-12-12T21:22:40.872Z,-1.20
2022-12-12T21:25:07.595Z,-1.20
2022-12-12T21:27:34.295Z,-1.10
2022-12-12T21:30:00.865Z,-1.20
2022-12-12T21:32:27.509Z,-1.10
2022-12-12T21:34:54.184Z,-1.10
2022-12-12T21:37:20.750Z,-1.00
2022-12-12T21:39:50.654Z,-1.00
2022-12-12T21:42:17.477Z,-1.00
2022-12-12T21:44:45.798Z,-0.90
2022-12-12T21:47:12.626Z,-1.00
2022-12-12T21:49:39.281Z,-1.20
2022-12-12T21:52:13.826Z,-1.30
2022-12-12T21:54:40.394Z,-1.30
2022-12-12T21:57:09.255Z,-1.30
2022-12-12T21:59:38.892Z,-1.20
2022-12-12T22:02:05.836Z,-1.20
2022-12-12T22:04:37.178Z,-1.30
2022-12-12T22:07:03.763Z,-1.30
2022-12-12T22:09:30.320Z,-1.20
2022-12-12T22:12:04.431Z,-1.10
2022-12-12T22:14:31.704Z,-1.00
2022-12-12T22:16:58.440Z,-1.00
2022-12-12T22:19:25.072Z,-1.10
2022-12-12T22:21:51.639Z,-1.20
2022-12-12T22:24:18.278Z,-1.20
2022-12-12T22:26:46.214Z,-1.20
2022-12-12T22:29:16.472Z,-1.10
2022-12-12T22:31:43.885Z,-1.10
2022-12-12T22:34:13.801Z,-1.00
2022-12-12T22:36:40.624Z,-1.00
2022-12-12T22:39:08.468Z,-1.00
2022-12-12T22:41:37.225Z,-1.00
2022-12-12T22:44:05.073Z,-0.90
2022-12-12T22:46:37.002Z,-0.90
2022-12-12T22:49:06.009Z,-0.80
2022-12-12T22:51:36.186Z,-0.80
2022-12-12T22:54:03.775Z,-0.80
2022-12-12T22:56:31.265Z,-0.80
2022-12-12T22:59:00.255Z,-0.80
2022-12-12T23:01:29.917Z,-0.80
2022-12-12T23:03:57.038Z,-0.80
2022-12-12T23:06:25.142Z,-0.80
2022-12-12T23:08:55.552Z,-0.80
2022-12-12T23:11:22.843Z,-0.80
2022-12-12T23:13:53.104Z,-0.80
2022-12-12T23:16:20.403Z,-0.70
2022-12-12T23:18:47.938Z,-0.80
2022-12-12T23:21:17.248Z,-0.80
2022-12-12T23:23:44.796Z,-0.80
2022-12-12T23:26:15.971Z,-0.70
2022-12-12T23:28:42.948Z,-0.70
2022-12-12T23:31:10.871Z,-0.70
2022-12-12T23:33:37.466Z,-0.70
2022-12-12T23:36:05.037Z,-0.70
2022-12-12T23:38:31.630Z,-0.80
2022-12-12T23:41:04.186Z,-0.80
2022-12-12T23:43:33.492Z,-0.80
2022-12-12T23:46:07.332Z,-0.90
2022-12-12T23:48:36.726Z,-0.90
2022-12-12T23:51:05.525Z,-0.90
2022-12-12T23:53:32.562Z,-0.90
2022-12-12T23:56:05.765Z,-0.90
2022-12-12T23:58:32.325Z,-0.90
